Time;durP1;ratioP1;P1;durP2;ratioP2;P2;SDS_P1;SDS_P2;PMS_P1;PMS_P2;Temp;Humidity;BMP_temperature;BMP_pressure;BME280_temperature;BME280_humidity;BME280_pressure;Samples;Min_cycle;Max_cycle;Signal;HPM_P1;HPM_P2
2023/05/03 00:00:44;;;;;;;15.80;8.30;;;6.40;99.90;;;;;;4954145;28;20967;-76
2023/05/03 00:03:12;;;;;;;18.03;8.80;;;6.40;99.90;;;;;;4953529;28;20501;-75
2023/05/03 00:05:39;;;;;;;11.93;8.00;;;6.50;99.90;;;;;;4953784;28;20933;-75
2023/05/03 00:08:06;;;;;;;13.77;8.00;;;6.30;99.90;;;;;;4953786;28;20917;-75
2023/05/03 00:10:34;;;;;;;14.43;8.67;;;6.30;99.90;;;;;;4953387;28;20526;-74
2023/05/03 00:13:00;;;;;;;14.27;8.43;;;6.30;99.90;;;;;;4953546;28;20457;-75
2023/05/03 00:15:27;;;;;;;17.57;9.10;;;6.20;99.90;;;;;;4953628;28;20450;-75
2023/05/03 00:17:54;;;;;;;14.70;8.23;;;6.10;99.90;;;;;;4953717;28;20529;-75
2023/05/03 00:20:21;;;;;;;18.80;9.43;;;6.10;99.90;;;;;;4953203;28;20478;-76
2023/05/03 00:22:47;;;;;;;17.53;7.90;;;6.10;99.90;;;;;;4953677;28;20497;-76
2023/05/03 00:25:14;;;;;;;16.10;9.50;;;6.00;99.90;;;;;;4952928;28;20469;-75
2023/05/03 00:27:42;;;;;;;15.33;8.70;;;6.00;99.90;;;;;;4953274;28;20459;-75
2023/05/03 00:30:10;;;;;;;16.23;8.43;;;6.00;99.90;;;;;;4952785;28;20504;-75
2023/05/03 00:32:37;;;;;;;21.73;10.90;;;5.90;99.90;;;;;;4953644;28;20547;-75
2023/05/03 00:35:05;;;;;;;11.40;8.87;;;5.80;99.90;;;;;;4952874;28;20478;-75
2023/05/03 00:37:32;;;;;;;12.40;8.10;;;5.80;99.90;;;;;;4952724;28;20472;-76
2023/05/03 00:39:58;;;;;;;18.77;8.83;;;5.70;99.90;;;;;;4952874;28;20479;-75
2023/05/03 00:42:25;;;;;;;20.63;8.33;;;5.60;99.90;;;;;;4945791;28;20532;-76
2023/05/03 00:44:54;;;;;;;12.97;7.70;;;5.60;99.90;;;;;;4952993;28;20515;-76
2023/05/03 00:47:21;;;;;;;13.10;8.80;;;5.50;99.90;;;;;;4952454;28;20468;-76
2023/05/03 00:49:48;;;;;;;18.33;8.83;;;5.50;99.90;;;;;;4953146;28;20472;-76
2023/05/03 00:52:15;;;;;;;17.60;7.80;;;5.50;99.90;;;;;;4952801;28;20464;-75
2023/05/03 00:54:41;;;;;;;18.53;9.27;;;5.40;99.90;;;;;;4952708;28;20890;-76
2023/05/03 00:57:08;;;;;;;13.60;8.73;;;5.40;99.90;;;;;;4952784;28;20511;-76
2023/05/03 00:59:35;;;;;;;19.20;8.90;;;5.40;99.90;;;;;;4952933;28;20542;-76
2023/05/03 01:02:03;;;;;;;13.40;8.57;;;5.30;99.90;;;;;;4952675;28;20878;-76
2023/05/03 01:04:30;;;;;;;21.20;9.67;;;5.30;99.90;;;;;;4952737;28;21011;-75
2023/05/03 01:07:09;;;;;;;18.43;7.97;;;5.30;99.90;;;;;;4952572;28;20471;-76
2023/05/03 01:09:43;;;;;;;17.53;8.47;;;5.20;99.90;;;;;;4951542;28;20512;-76
2023/05/03 01:12:20;;;;;;;21.00;9.10;;;5.20;99.90;;;;;;4952453;28;20470;-75
2023/05/03 01:14:54;;;;;;;18.53;9.60;;;5.20;99.90;;;;;;4952503;28;20668;-76
2023/05/03 01:17:28;;;;;;;16.50;8.80;;;5.20;99.90;;;;;;4952531;28;20462;-75
2023/05/03 01:19:57;;;;;;;13.23;8.37;;;5.20;99.90;;;;;;4952495;28;20472;-76
2023/05/03 01:22:32;;;;;;;16.50;8.63;;;5.20;99.90;;;;;;4952072;28;20459;-76
2023/05/03 01:25:06;;;;;;;12.23;8.20;;;5.10;99.90;;;;;;4952328;28;20567;-76
2023/05/03 01:27:33;;;;;;;15.67;8.50;;;5.10;99.90;;;;;;4952758;28;20458;-76
2023/05/03 01:29:59;;;;;;;16.97;8.90;;;5.00;99.90;;;;;;4952271;28;20479;-75
2023/05/03 01:32:34;;;;;;;18.20;9.50;;;5.00;99.90;;;;;;4952443;28;20458;-76
2023/05/03 01:35:05;;;;;;;17.40;10.53;;;4.90;99.90;;;;;;4952316;28;20458;-76
2023/05/03 01:37:32;;;;;;;18.50;9.53;;;4.80;99.90;;;;;;4944735;28;20458;-76
2023/05/03 01:40:03;;;;;;;16.90;9.30;;;4.80;99.90;;;;;;4951769;28;20506;-76
2023/05/03 01:42:31;;;;;;;20.83;9.53;;;4.80;99.90;;;;;;4951879;28;20460;-76
2023/05/03 01:44:59;;;;;;;15.90;9.30;;;4.70;99.90;;;;;;4952087;28;20792;-76
2023/05/03 01:47:26;;;;;;;26.97;10.50;;;4.70;99.90;;;;;;4952333;28;20453;-76
2023/05/03 01:49:53;;;;;;;23.40;10.13;;;4.70;99.90;;;;;;4951044;28;20483;-76
2023/05/03 01:52:19;;;;;;;18.57;9.27;;;4.70;99.90;;;;;;4950984;28;20466;-76
2023/05/03 01:54:46;;;;;;;17.00;9.90;;;4.70;99.90;;;;;;4951348;28;20458;-76
2023/05/03 01:57:14;;;;;;;21.53;10.10;;;4.70;99.90;;;;;;4951485;28;20458;-76
2023/05/03 01:59:41;;;;;;;19.10;9.77;;;4.70;99.90;;;;;;4951542;28;20483;-76
2023/05/03 02:02:07;;;;;;;20.87;10.20;;;4.70;99.90;;;;;;4951414;28;20688;-76
2023/05/03 02:04:34;;;;;;;21.50;9.30;;;4.70;99.90;;;;;;4951786;28;20523;-75
2023/05/03 02:07:00;;;;;;;24.00;9.77;;;4.70;99.90;;;;;;4951134;28;20528;-75
2023/05/03 02:09:27;;;;;;;16.93;9.20;;;4.80;99.90;;;;;;4950877;28;20463;-75
2023/05/03 02:11:54;;;;;;;20.17;9.77;;;4.70;99.90;;;;;;4951610;28;20459;-76
2023/05/03 02:14:22;;;;;;;22.17;10.40;;;4.80;99.90;;;;;;4950906;28;20935;-75
2023/05/03 02:16:48;;;;;;;21.50;9.47;;;4.70;99.90;;;;;;4950673;28;20756;-76
2023/05/03 02:19:15;;;;;;;22.80;9.20;;;4.70;99.90;;;;;;4951411;28;21005;-76
2023/05/03 02:21:42;;;;;;;20.90;9.60;;;4.70;99.90;;;;;;4954929;28;20458;-75
2023/05/03 02:24:08;;;;;;;19.93;9.70;;;4.70;99.90;;;;;;4955432;28;20494;-75
2023/05/03 02:26:35;;;;;;;16.93;9.53;;;4.70;99.90;;;;;;4955509;28;20512;-75
2023/05/03 02:29:02;;;;;;;19.00;9.57;;;4.60;99.90;;;;;;4955790;28;20528;-75
2023/05/03 02:31:30;;;;;;;18.40;9.97;;;4.60;99.90;;;;;;4955246;28;20473;-75
2023/05/03 02:33:56;;;;;;;28.37;11.30;;;4.50;99.90;;;;;;4955031;28;21037;-75
2023/05/03 02:36:23;;;;;;;16.43;9.77;;;4.50;99.90;;;;;;4954856;28;20465;-75
2023/05/03 02:38:49;;;;;;;15.03;9.73;;;4.50;99.90;;;;;;4954918;28;20946;-75
2023/05/03 02:41:16;;;;;;;19.53;10.30;;;4.40;99.90;;;;;;4954460;28;20853;-75
2023/05/03 02:43:43;;;;;;;17.50;9.37;;;4.40;99.90;;;;;;4955302;28;20544;-75
2023/05/03 02:46:09;;;;;;;18.17;10.00;;;4.40;99.90;;;;;;4954858;28;20885;-75
2023/05/03 02:48:37;;;;;;;17.23;9.70;;;4.40;99.90;;;;;;4955619;28;20445;-75
2023/05/03 02:51:05;;;;;;;18.27;8.60;;;4.40;99.90;;;;;;4955156;28;20481;-76
2023/05/03 02:53:32;;;;;;;24.50;9.87;;;4.30;99.90;;;;;;4953454;28;20454;-76
2023/05/03 02:55:58;;;;;;;19.70;10.57;;;4.30;99.90;;;;;;4954973;28;20465;-75
2023/05/03 02:58:25;;;;;;;16.47;9.53;;;4.20;99.90;;;;;;4954967;28;21626;-75
2023/05/03 03:00:52;;;;;;;14.53;9.40;;;4.20;99.90;;;;;;4955108;28;20516;-76
2023/05/03 03:03:19;;;;;;;24.40;10.87;;;4.20;99.90;;;;;;4954987;28;20551;-76
2023/05/03 03:05:47;;;;;;;16.93;9.03;;;4.20;99.90;;;;;;4954651;28;20876;-76
2023/05/03 03:08:13;;;;;;;21.13;9.70;;;4.10;99.90;;;;;;4954730;28;20466;-76
2023/05/03 03:10:40;;;;;;;22.07;9.20;;;4.20;99.90;;;;;;4948778;28;20480;-76
2023/05/03 03:13:07;;;;;;;23.20;9.57;;;4.10;99.90;;;;;;4954646;28;20820;-76
2023/05/03 03:15:33;;;;;;;24.87;10.70;;;4.10;99.90;;;;;;4954657;28;20953;-76
2023/05/03 03:18:00;;;;;;;16.37;10.50;;;4.10;99.90;;;;;;4954472;28;20466;-76
2023/05/03 03:20:27;;;;;;;14.67;9.20;;;4.10;99.90;;;;;;4954428;28;20501;-75
2023/05/03 03:22:55;;;;;;;20.43;10.20;;;4.00;99.90;;;;;;4954277;28;20482;-76
2023/05/03 03:25:22;;;;;;;21.07;10.83;;;3.90;99.90;;;;;;4953738;28;20517;-76
2023/05/03 03:27:49;;;;;;;28.70;10.20;;;4.00;99.90;;;;;;4954578;28;20462;-76
2023/05/03 03:30:16;;;;;;;15.10;9.67;;;4.00;99.90;;;;;;4954427;28;20485;-75
2023/05/03 03:32:42;;;;;;;19.60;10.03;;;3.90;99.90;;;;;;4953950;28;20449;-76
2023/05/03 03:35:10;;;;;;;18.20;9.80;;;3.90;99.90;;;;;;4954374;28;20873;-76
2023/05/03 03:37:37;;;;;;;23.27;10.30;;;3.90;99.90;;;;;;4953826;28;20473;-76
2023/05/03 03:40:07;;;;;;;19.90;10.30;;;3.90;99.90;;;;;;4954779;28;20466;-77
2023/05/03 03:42:34;;;;;;;19.40;9.77;;;3.90;99.90;;;;;;4946982;28;20518;-76
2023/05/03 03:45:01;;;;;;;23.63;10.03;;;3.90;99.90;;;;;;4953530;28;20566;-76
2023/05/03 03:47:27;;;;;;;20.17;11.00;;;3.80;99.90;;;;;;4953652;28;20996;-76
2023/05/03 03:49:54;;;;;;;22.50;10.87;;;3.80;99.90;;;;;;4953735;28;20469;-77
2023/05/03 03:52:21;;;;;;;20.93;10.03;;;3.80;99.90;;;;;;4953566;28;20458;-76
2023/05/03 03:54:47;;;;;;;20.10;10.83;;;3.70;99.90;;;;;;4952801;28;20507;-76
2023/05/03 03:57:15;;;;;;;21.43;9.47;;;3.70;99.90;;;;;;4953606;28;20457;-75
2023/05/03 03:59:42;;;;;;;23.60;10.10;;;3.70;99.90;;;;;;4953558;28;20531;-76
2023/05/03 04:02:08;;;;;;;23.60;10.23;;;3.70;99.90;;;;;;4953806;28;20944;-76
2023/05/03 04:04:35;;;;;;;16.40;10.17;;;3.70;99.90;;;;;;4953833;28;20484;-76
2023/05/03 04:07:03;;;;;;;23.80;10.60;;;3.60;99.90;;;;;;4953371;28;20545;-77
2023/05/03 04:09:29;;;;;;;19.00;10.00;;;3.60;99.90;;;;;;4952524;28;20462;-76
2023/05/03 04:11:56;;;;;;;21.07;10.77;;;3.60;99.90;;;;;;4954287;28;20451;-76
2023/05/03 04:14:24;;;;;;;21.27;10.70;;;3.60;99.90;;;;;;4953299;28;20516;-76
2023/05/03 04:16:51;;;;;;;27.67;10.67;;;3.60;99.90;;;;;;4951800;28;21032;-76
2023/05/03 04:19:17;;;;;;;26.30;10.30;;;3.60;99.90;;;;;;4953900;28;20491;-76
2023/05/03 04:21:44;;;;;;;23.90;11.27;;;3.60;99.90;;;;;;4953902;28;20454;-76
2023/05/03 04:24:15;;;;;;;19.60;11.70;;;3.60;99.90;;;;;;4953896;28;20570;-77
2023/05/03 04:26:42;;;;;;;19.90;10.50;;;3.70;99.90;;;;;;4953520;28;20469;-76
2023/05/03 04:29:09;;;;;;;22.70;10.57;;;3.70;99.90;;;;;;4953613;28;20522;-77
2023/05/03 04:31:37;;;;;;;21.50;10.73;;;3.70;99.90;;;;;;4953596;28;20571;-76
2023/05/03 04:34:04;;;;;;;28.63;10.97;;;3.80;99.90;;;;;;4953366;28;20458;-76
2023/05/03 04:36:31;;;;;;;19.70;10.30;;;3.80;99.90;;;;;;4952651;28;20465;-76
2023/05/03 04:38:58;;;;;;;22.23;9.97;;;3.80;99.90;;;;;;4953229;28;20453;-76
2023/05/03 04:41:25;;;;;;;23.77;10.23;;;3.80;99.90;;;;;;4951810;28;20986;-77
2023/05/03 04:43:52;;;;;;;20.77;10.90;;;3.90;99.90;;;;;;4951398;28;20500;-76
2023/05/03 04:46:19;;;;;;;23.90;11.40;;;3.90;99.90;;;;;;4951111;28;20459;-76
2023/05/03 04:48:47;;;;;;;21.23;10.03;;;3.90;99.90;;;;;;4951299;28;20965;-77
2023/05/03 04:51:13;;;;;;;18.60;10.07;;;3.90;99.90;;;;;;4951484;28;20852;-76
2023/05/03 04:53:40;;;;;;;18.60;9.90;;;4.00;99.90;;;;;;4951405;28;21071;-76
2023/05/03 04:56:07;;;;;;;19.70;10.57;;;4.00;99.90;;;;;;4952219;28;20468;-77
2023/05/03 04:58:35;;;;;;;20.23;11.10;;;4.10;99.90;;;;;;4953538;28;20676;-77
2023/05/03 05:01:02;;;;;;;22.80;10.37;;;4.20;99.90;;;;;;4953351;28;20537;-76
2023/05/03 05:03:30;;;;;;;21.07;10.37;;;4.30;99.90;;;;;;4952815;28;20463;-76
2023/05/03 05:05:58;;;;;;;15.97;9.67;;;4.30;99.90;;;;;;4953321;28;20466;-77
2023/05/03 05:08:24;;;;;;;17.27;10.00;;;4.50;99.90;;;;;;4952423;28;20521;-77
2023/05/03 05:10:51;;;;;;;18.43;10.20;;;4.60;99.90;;;;;;4953449;28;20471;-77
2023/05/03 05:13:18;;;;;;;17.83;10.60;;;4.80;99.90;;;;;;4952045;28;20520;-76
2023/05/03 05:15:44;;;;;;;22.30;10.77;;;4.90;99.90;;;;;;4953172;28;20457;-76
2023/05/03 05:18:11;;;;;;;16.37;10.73;;;5.00;99.90;;;;;;4953357;28;20466;-76
2023/05/03 05:20:38;;;;;;;16.83;9.70;;;5.20;99.90;;;;;;4953060;28;21053;-76
2023/05/03 05:23:06;;;;;;;18.60;10.60;;;5.30;99.90;;;;;;4952606;28;20464;-74
2023/05/03 05:25:32;;;;;;;20.00;10.87;;;5.50;99.90;;;;;;4952196;28;20503;-75
2023/05/03 05:27:59;;;;;;;18.30;9.80;;;5.70;99.90;;;;;;4952295;28;20600;-74
2023/05/03 05:30:26;;;;;;;17.00;9.60;;;5.80;99.90;;;;;;4952019;28;20474;-71
2023/05/03 05:32:52;;;;;;;22.63;9.27;;;6.00;99.90;;;;;;4952509;28;20455;-71
2023/05/03 05:35:19;;;;;;;19.17;9.90;;;6.20;99.90;;;;;;4951854;28;20454;-70
2023/05/03 05:37:45;;;;;;;18.70;9.70;;;6.30;99.90;;;;;;4951432;28;20471;-71
2023/05/03 05:40:14;;;;;;;19.90;9.00;;;6.50;99.90;;;;;;4952097;28;20470;-71
2023/05/03 05:42:41;;;;;;;16.33;9.30;;;6.60;99.90;;;;;;4944964;28;20456;-71
2023/05/03 05:45:08;;;;;;;17.10;9.20;;;6.70;99.90;;;;;;4951369;28;20528;-71
2023/05/03 05:47:35;;;;;;;19.23;9.30;;;6.90;99.90;;;;;;4952098;28;20455;-71
2023/05/03 05:50:02;;;;;;;13.97;9.20;;;7.20;99.90;;;;;;4951987;28;20535;-71
2023/05/03 05:52:29;;;;;;;18.13;10.13;;;7.40;99.90;;;;;;4951752;28;20463;-71
2023/05/03 05:54:55;;;;;;;17.27;9.97;;;7.50;99.90;;;;;;4952051;28;20508;-71
2023/05/03 05:57:24;;;;;;;20.83;10.23;;;7.60;99.90;;;;;;4952165;28;20465;-71
2023/05/03 05:59:50;;;;;;;12.20;9.27;;;7.60;99.90;;;;;;4952338;28;20517;-71
2023/05/03 06:02:21;;;;;;;20.40;10.17;;;7.70;99.90;;;;;;4951976;28;20526;-71
2023/05/03 06:04:48;;;;;;;20.90;10.40;;;7.90;99.90;;;;;;4952275;28;20515;-71
2023/05/03 06:07:16;;;;;;;14.60;9.53;;;8.20;99.90;;;;;;4951778;28;20956;-71
2023/05/03 06:09:42;;;;;;;17.23;9.97;;;8.60;99.90;;;;;;4952289;28;20555;-71
2023/05/03 06:12:10;;;;;;;21.00;10.30;;;9.00;99.90;;;;;;4951635;28;20920;-69
2023/05/03 06:14:38;;;;;;;17.83;10.53;;;9.30;99.90;;;;;;4951349;28;20450;-69
2023/05/03 06:17:04;;;;;;;14.07;9.80;;;9.50;99.90;;;;;;4951112;28;20465;-70
2023/05/03 06:19:31;;;;;;;17.63;9.13;;;9.70;99.90;;;;;;4948325;28;20572;-70
2023/05/03 06:21:58;;;;;;;13.03;9.23;;;9.80;99.90;;;;;;4956925;28;20522;-70
2023/05/03 06:24:29;;;;;;;16.67;10.57;;;9.80;99.90;;;;;;4957454;28;20555;-70
2023/05/03 06:26:57;;;;;;;13.77;9.20;;;9.90;99.90;;;;;;4957319;28;20458;-70
2023/05/03 06:29:24;;;;;;;18.50;9.53;;;10.10;99.90;;;;;;4957052;28;20462;-69
2023/05/03 06:31:52;;;;;;;15.73;9.67;;;10.30;99.90;;;;;;4956607;28;20458;-70
2023/05/03 06:34:20;;;;;;;20.33;9.80;;;10.30;99.90;;;;;;4957716;28;20535;-70
2023/05/03 06:36:47;;;;;;;12.33;8.20;;;10.40;99.90;;;;;;4957695;28;20474;-70
2023/05/03 06:39:13;;;;;;;21.33;10.30;;;10.50;99.90;;;;;;4957561;28;20461;-70
2023/05/03 06:41:40;;;;;;;18.60;8.93;;;10.60;99.90;;;;;;4957596;28;20482;-70
2023/05/03 06:44:07;;;;;;;18.53;8.90;;;10.70;99.90;;;;;;4957495;28;20469;-69
2023/05/03 06:46:33;;;;;;;23.63;7.70;;;10.90;99.90;;;;;;4957310;28;20453;-70
2023/05/03 06:49:02;;;;;;;17.80;7.83;;;10.80;99.90;;;;;;4957717;28;20909;-70
2023/05/03 06:51:31;;;;;;;16.37;7.27;;;10.80;99.90;;;;;;4957261;28;20906;-70
2023/05/03 06:54:05;;;;;;;17.50;7.30;;;10.90;99.90;;;;;;4957573;28;20457;-70
2023/05/03 06:56:32;;;;;;;14.67;7.20;;;11.00;99.90;;;;;;4957374;28;20812;-70
2023/05/03 06:58:59;;;;;;;12.70;7.00;;;11.20;99.90;;;;;;4957476;28;20937;-71
2023/05/03 07:01:26;;;;;;;12.60;7.53;;;11.40;99.90;;;;;;4957041;28;20481;-70
2023/05/03 07:03:52;;;;;;;12.90;7.37;;;11.40;99.90;;;;;;4957400;28;20469;-70
2023/05/03 07:06:21;;;;;;;12.27;6.73;;;11.40;99.90;;;;;;4957081;28;20500;-70
2023/05/03 07:08:49;;;;;;;10.43;6.17;;;11.40;99.90;;;;;;4960076;28;20465;-70
2023/05/03 07:11:15;;;;;;;15.30;6.80;;;11.30;99.90;;;;;;4961443;28;20547;-70
2023/05/03 07:13:42;;;;;;;21.50;7.07;;;11.30;99.90;;;;;;4961207;28;20454;-70
2023/05/03 07:16:08;;;;;;;15.20;6.50;;;11.40;99.90;;;;;;4961161;28;20453;-70
2023/05/03 07:18:35;;;;;;;13.87;6.27;;;11.60;99.90;;;;;;4961315;28;20965;-71
2023/05/03 07:21:04;;;;;;;9.07;6.40;;;11.70;99.90;;;;;;4960949;28;20469;-71
2023/05/03 07:23:35;;;;;;;12.50;6.63;;;11.80;99.90;;;;;;4961147;28;20453;-71
2023/05/03 07:26:02;;;;;;;13.23;5.97;;;11.80;99.90;;;;;;4960697;28;21013;-72
2023/05/03 07:28:29;;;;;;;19.43;6.17;;;12.00;99.90;;;;;;4960860;28;20457;-71
2023/05/03 07:30:56;;;;;;;9.27;5.80;;;12.20;99.90;;;;;;4960578;28;20485;-71
2023/05/03 07:33:22;;;;;;;10.57;5.80;;;12.30;99.90;;;;;;4961037;28;20519;-71
2023/05/03 07:35:49;;;;;;;12.80;6.37;;;12.50;99.90;;;;;;4959934;28;20464;-71
2023/05/03 07:38:16;;;;;;;9.50;6.60;;;12.60;99.90;;;;;;4960696;28;20462;-71
2023/05/03 07:40:44;;;;;;;11.53;6.20;;;12.50;99.90;;;;;;4960266;28;20477;-71
2023/05/03 07:43:11;;;;;;;16.70;6.70;;;12.50;99.90;;;;;;4960974;28;20461;-72
2023/05/03 07:45:38;;;;;;;7.30;6.20;;;12.70;99.90;;;;;;4959258;28;20531;-72
2023/05/03 07:48:05;;;;;;;11.13;6.30;;;12.80;99.90;;;;;;4961141;28;20943;-72
2023/05/03 07:50:32;;;;;;;11.77;6.60;;;13.00;99.90;;;;;;4960224;28;20531;-72
2023/05/03 07:52:58;;;;;;;16.73;6.93;;;13.30;99.90;;;;;;4960202;28;20452;-72
2023/05/03 07:55:25;;;;;;;10.10;5.87;;;13.50;99.90;;;;;;4960412;28;20457;-72
2023/05/03 07:57:57;;;;;;;7.57;5.93;;;13.50;99.90;;;;;;4960997;28;20466;-72
2023/05/03 08:00:24;;;;;;;7.80;6.10;;;13.80;99.90;;;;;;4959683;28;20493;-72
2023/05/03 08:02:51;;;;;;;7.10;5.43;;;14.00;99.90;;;;;;4960805;28;20497;-72
2023/05/03 08:05:17;;;;;;;8.30;6.40;;;14.10;99.90;;;;;;4960121;28;20560;-72
2023/05/03 08:07:44;;;;;;;12.20;6.23;;;14.20;99.90;;;;;;4960405;28;20467;-72
2023/05/03 08:10:11;;;;;;;7.47;6.00;;;14.40;99.90;;;;;;4960323;28;20882;-72
2023/05/03 08:12:38;;;;;;;9.20;6.03;;;14.30;99.90;;;;;;4960140;28;20962;-72
2023/05/03 08:15:07;;;;;;;10.40;6.10;;;14.20;99.90;;;;;;4959648;28;20458;-71
2023/05/03 08:17:40;;;;;;;13.40;6.50;;;14.20;99.90;;;;;;4960431;28;20453;-72
2023/05/03 08:20:08;;;;;;;6.80;5.70;;;14.20;99.90;;;;;;4960089;28;20490;-71
2023/05/03 08:22:35;;;;;;;10.70;6.07;;;14.40;99.90;;;;;;4960098;28;21642;-72
2023/05/03 08:25:03;;;;;;;6.40;5.83;;;14.40;99.90;;;;;;4960331;28;21088;-71
2023/05/03 08:27:30;;;;;;;10.53;5.93;;;14.70;99.90;;;;;;4960194;28;20466;-71
2023/05/03 08:29:56;;;;;;;11.03;6.60;;;14.80;99.90;;;;;;4960002;28;20955;-72
2023/05/03 08:32:24;;;;;;;8.87;5.97;;;15.00;99.90;;;;;;4960177;28;20465;-71
2023/05/03 08:34:52;;;;;;;13.47;7.03;;;15.10;99.90;;;;;;4960511;28;20454;-71
2023/05/03 08:37:18;;;;;;;9.70;4.97;;;15.10;99.90;;;;;;4959669;28;20519;-71
2023/05/03 08:39:47;;;;;;;10.03;5.37;;;15.20;99.90;;;;;;4960014;28;21020;-72
2023/05/03 08:42:13;;;;;;;11.90;5.70;;;15.40;99.90;;;;;;4959696;28;20986;-71
2023/05/03 08:44:46;;;;;;;11.20;5.40;;;15.30;99.90;;;;;;4959663;28;20461;-72
2023/05/03 08:47:15;;;;;;;15.10;5.93;;;15.50;99.90;;;;;;4959582;28;20488;-72
2023/05/03 08:49:44;;;;;;;5.30;4.80;;;15.70;99.90;;;;;;4959779;28;20473;-71
2023/05/03 08:52:11;;;;;;;12.47;5.20;;;15.90;99.90;;;;;;4959935;28;20516;-72
2023/05/03 08:54:39;;;;;;;10.23;5.33;;;16.00;99.90;;;;;;4959608;28;20450;-72
2023/05/03 08:57:10;;;;;;;9.07;5.57;;;16.20;99.90;;;;;;4956957;28;20597;-72
2023/05/03 08:59:46;;;;;;;8.80;5.60;;;16.30;99.90;;;;;;4956970;28;20524;-72
2023/05/03 09:02:14;;;;;;;10.90;4.90;;;15.90;99.90;;;;;;4958954;28;20542;-71
2023/05/03 09:04:42;;;;;;;6.03;5.40;;;15.50;99.90;;;;;;4959037;28;20462;-71
2023/05/03 09:07:10;;;;;;;6.60;5.57;;;15.40;99.90;;;;;;4957249;28;20501;-71
2023/05/03 09:09:37;;;;;;;11.03;5.37;;;15.50;99.90;;;;;;4958297;28;20556;-71
2023/05/03 09:12:04;;;;;;;14.67;5.60;;;15.60;99.90;;;;;;4957868;28;20457;-71
2023/05/03 09:14:41;;;;;;;7.30;5.23;;;15.70;99.90;;;;;;4957597;28;20457;-71
2023/05/03 09:17:15;;;;;;;7.30;6.00;;;15.60;99.90;;;;;;4958337;28;20508;-72
2023/05/03 09:19:51;;;;;;;6.70;5.60;;;15.80;99.90;;;;;;4958074;28;20473;-71
2023/05/03 09:22:18;;;;;;;6.90;5.20;;;16.00;99.90;;;;;;4958537;28;20454;-71
2023/05/03 09:24:52;;;;;;;8.57;4.83;;;16.30;99.90;;;;;;4957299;28;20473;-68
2023/05/03 09:27:20;;;;;;;5.23;4.63;;;16.50;99.90;;;;;;4957778;28;20461;-71
2023/05/03 09:29:47;;;;;;;6.70;5.13;;;16.60;99.90;;;;;;4957021;28;21303;-71
2023/05/03 09:32:14;;;;;;;10.90;5.30;;;16.60;99.90;;;;;;4958123;28;20564;-71
2023/05/03 09:34:41;;;;;;;10.40;5.47;;;16.60;99.90;;;;;;4958299;28;20825;-72
2023/05/03 09:37:09;;;;;;;8.20;5.20;;;16.80;99.90;;;;;;4957418;28;20465;-72
2023/05/03 09:39:36;;;;;;;13.73;5.60;;;17.20;99.90;;;;;;4957307;28;20484;-72
2023/05/03 09:42:11;;;;;;;11.13;5.03;;;17.50;99.90;;;;;;4957780;28;20473;-72
2023/05/03 09:44:42;;;;;;;8.47;5.47;;;17.30;99.90;;;;;;4957460;28;20464;-71
2023/05/03 09:47:09;;;;;;;8.83;4.90;;;17.50;99.90;;;;;;4957519;28;20493;-71
2023/05/03 09:49:36;;;;;;;7.20;4.90;;;17.80;99.90;;;;;;4956633;28;20480;-71
2023/05/03 09:52:05;;;;;;;7.30;5.20;;;17.80;99.90;;;;;;4957704;28;20465;-71
2023/05/03 09:54:34;;;;;;;13.20;5.70;;;17.90;99.90;;;;;;4957941;28;20497;-72
2023/05/03 09:57:03;;;;;;;17.97;4.70;;;17.90;99.90;;;;;;4957243;28;20458;-72
2023/05/03 09:59:30;;;;;;;12.30;5.33;;;18.10;99.90;;;;;;4956828;28;20444;-72
2023/05/03 10:01:58;;;;;;;8.40;5.03;;;18.00;99.90;;;;;;4956049;28;20488;-72
2023/05/03 10:04:27;;;;;;;6.00;4.77;;;17.30;99.90;;;;;;4958188;28;20477;-71
2023/05/03 10:06:59;;;;;;;6.70;5.10;;;17.00;99.90;;;;;;4954660;28;20500;-71
2023/05/03 10:09:31;;;;;;;9.77;5.80;;;17.10;99.90;;;;;;4957632;28;20464;-71
2023/05/03 10:12:00;;;;;;;12.83;6.93;;;17.00;99.90;;;;;;4955785;28;20453;-71
2023/05/03 10:14:27;;;;;;;9.20;5.70;;;17.00;99.90;;;;;;4958132;28;20460;-71
2023/05/03 10:16:59;;;;;;;7.33;5.03;;;17.10;99.90;;;;;;4956504;28;20873;-71
2023/05/03 10:19:33;;;;;;;9.03;5.47;;;17.20;99.90;;;;;;4957076;28;20502;-70
2023/05/03 10:22:05;;;;;;;8.00;5.77;;;17.70;99.90;;;;;;4958183;28;20877;-71
2023/05/03 10:24:32;;;;;;;6.77;4.77;;;18.10;99.90;;;;;;4957315;28;20853;-71
2023/05/03 10:27:00;;;;;;;10.40;5.20;;;18.30;99.90;;;;;;4957209;28;20532;-71
2023/05/03 10:29:52;;;;;;;9.77;5.23;;;18.50;99.90;;;;;;4958062;28;20447;-71
2023/05/03 10:32:38;;;;;;;8.50;4.70;;;18.00;99.90;;;;;;4957940;28;20427;-72
2023/05/03 10:35:08;;;;;;;7.57;4.80;;;17.90;99.90;;;;;;4957808;28;20428;-71
2023/05/03 10:37:36;;;;;;;10.37;5.43;;;18.00;99.90;;;;;;4957162;28;20795;-71
2023/05/03 10:40:12;;;;;;;8.87;5.20;;;18.30;99.90;;;;;;4957613;28;20998;-71
2023/05/03 10:42:43;;;;;;;7.53;5.60;;;18.40;99.90;;;;;;4960668;28;20432;-71
2023/05/03 10:45:20;;;;;;;7.73;5.73;;;17.80;99.90;;;;;;4961786;28;20435;-71
2023/05/03 10:48:19;;;;;;;6.93;4.80;;;17.70;99.90;;;;;;4961874;28;20464;-71
2023/05/03 10:50:47;;;;;;;7.57;5.37;;;18.00;99.90;;;;;;4960940;28;20484;-70
2023/05/03 10:53:35;;;;;;;6.97;5.17;;;18.40;99.90;;;;;;4961872;28;20465;-71
2023/05/03 10:56:04;;;;;;;6.30;4.80;;;18.60;99.90;;;;;;4961073;28;20466;-71
2023/05/03 10:58:36;;;;;;;6.23;4.70;;;19.00;99.90;;;;;;4961437;28;20502;-70
2023/05/03 11:01:03;;;;;;;8.73;5.00;;;19.20;99.90;;;;;;4960692;28;20458;-71
2023/05/03 11:03:45;;;;;;;6.70;4.80;;;19.70;99.90;;;;;;4961866;28;20465;-71
2023/05/03 11:06:27;;;;;;;5.90;4.60;;;20.00;99.90;;;;;;4961059;28;20999;-72
2023/05/03 11:08:54;;;;;;;8.50;5.07;;;20.00;99.90;;;;;;4961121;28;21735;-71
2023/05/03 11:11:21;;;;;;;15.73;5.20;;;19.90;99.90;;;;;;4960750;28;20869;-71
2023/05/03 11:13:50;;;;;;;9.10;4.40;;;19.60;99.90;;;;;;4960839;28;21002;-70
2023/05/03 11:16:17;;;;;;;8.80;4.60;;;19.70;99.90;;;;;;4961428;28;20457;-70
2023/05/03 11:18:44;;;;;;;7.00;4.50;;;19.60;99.90;;;;;;4962503;28;20461;-71
2023/05/03 11:21:11;;;;;;;7.90;4.33;;;19.90;99.90;;;;;;4960731;28;20462;-70
2023/05/03 11:23:39;;;;;;;7.60;4.50;;;20.20;99.90;;;;;;4961398;28;20453;-70
2023/05/03 11:26:06;;;;;;;6.47;4.60;;;20.30;99.90;;;;;;4959848;28;20576;-70
2023/05/03 11:28:32;;;;;;;10.40;4.33;;;20.30;99.90;;;;;;4961084;28;20522;-71
2023/05/03 11:31:01;;;;;;;6.37;4.33;;;20.60;99.90;;;;;;4959906;28;20456;-71
2023/05/03 11:33:29;;;;;;;8.40;4.33;;;21.10;99.90;;;;;;4960258;28;20445;-71
2023/05/03 11:35:56;;;;;;;9.83;4.30;;;21.10;99.90;;;;;;4960186;28;20456;-71
2023/05/03 11:38:23;;;;;;;6.10;4.20;;;21.00;99.90;;;;;;4960074;28;20456;-71
2023/05/03 11:40:50;;;;;;;6.60;4.10;;;20.80;98.40;;;;;;4960659;28;20544;-71
2023/05/03 11:43:17;;;;;;;6.07;3.60;;;21.00;97.80;;;;;;4961029;28;20832;-71
2023/05/03 11:45:46;;;;;;;7.60;4.40;;;21.00;99.00;;;;;;4959882;28;20445;-71
2023/05/03 11:48:15;;;;;;;9.30;4.03;;;20.70;98.00;;;;;;4960278;28;20432;-71
2023/05/03 11:50:46;;;;;;;17.20;4.40;;;20.60;97.50;;;;;;4960252;28;20464;-71
2023/05/03 11:53:13;;;;;;;5.10;3.73;;;20.40;97.60;;;;;;4958535;28;20878;-71
2023/05/03 11:55:42;;;;;;;6.40;4.23;;;20.10;97.80;;;;;;4957816;28;20528;-71
2023/05/03 11:58:12;;;;;;;11.33;5.00;;;20.20;96.90;;;;;;4959595;28;20429;-70
2023/05/03 12:00:40;;;;;;;6.53;4.67;;;20.30;97.30;;;;;;4960208;28;21008;-70
2023/05/03 12:03:07;;;;;;;12.70;4.50;;;20.60;98.90;;;;;;4960633;28;20949;-70
2023/05/03 12:05:35;;;;;;;5.97;4.30;;;20.90;97.40;;;;;;4958742;28;20493;-70
2023/05/03 12:08:02;;;;;;;7.70;4.57;;;21.10;99.50;;;;;;4960341;28;20519;-70
2023/05/03 12:10:32;;;;;;;5.40;4.23;;;21.50;98.60;;;;;;4959997;28;20531;-70
2023/05/03 12:13:00;;;;;;;6.07;4.70;;;22.00;99.20;;;;;;4960395;28;20904;-70
2023/05/03 12:15:28;;;;;;;6.00;4.10;;;21.90;96.50;;;;;;4959618;28;21023;-70
2023/05/03 12:17:56;;;;;;;11.23;4.17;;;22.00;99.10;;;;;;4960041;28;20972;-70
2023/05/03 12:20:24;;;;;;;4.83;4.10;;;22.30;98.30;;;;;;4960142;28;20469;-70
2023/05/03 12:22:53;;;;;;;5.57;3.73;;;22.60;97.40;;;;;;4960081;28;20464;-70
2023/05/03 12:25:20;;;;;;;13.33;4.03;;;22.50;95.50;;;;;;4959773;28;20495;-70
2023/05/03 12:27:47;;;;;;;12.23;4.67;;;22.50;93.30;;;;;;4959705;28;20523;-70
2023/05/03 12:30:14;;;;;;;4.90;3.97;;;22.40;93.70;;;;;;4960065;28;20477;-70
2023/05/03 12:32:42;;;;;;;7.60;4.10;;;22.60;95.90;;;;;;4959899;28;20526;-70
2023/05/03 12:35:08;;;;;;;11.47;3.87;;;22.30;92.80;;;;;;4959858;28;20502;-70
2023/05/03 12:37:35;;;;;;;6.40;3.90;;;22.00;94.20;;;;;;4959077;28;20464;-70
2023/05/03 12:40:04;;;;;;;6.30;4.30;;;22.30;95.20;;;;;;4959412;28;20476;-70
2023/05/03 12:42:31;;;;;;;10.40;4.80;;;22.50;93.40;;;;;;4959793;28;20512;-70
2023/05/03 12:44:58;;;;;;;12.23;3.83;;;22.60;95.30;;;;;;4959675;28;20964;-70
2023/05/03 12:47:25;;;;;;;6.53;4.03;;;22.80;95.30;;;;;;4959570;28;20488;-71